Benezett, PA

5:50 AM EDT on March 30, 2015 (GMT -0400)
Sylvan Heights | | Change Station
CLOSE
Current Station
Personal Weather Station
Location: Emporium, PA
Elevation: 1166 ft
Nearby Weather Stations

Elev 1166 ft 41.51 °N, 78.21 °W | Updated 10 seconds ago

Overcast
Overcast
36.8 °F
Feels Like 37 °F
N
0.0
Wind Variable Wind from South
Gusts 10.0 mph

Today
High -- | Low -- °F
--% Chance of Precip.
Yesterday
High -- | Low -- °F
Precip. -- in
7:00 AM 7:36 PM
Waxing Gibbous, 78% visible
Pressure 29.76 in
Visibility 5.0 miles
Clouds Few 200 ft
Overcast 1000 ft
Windchill 37 °F
Dew Point 34 °F
Humidity 91%
Rainfall 0.00 in
Snow Depth Not available.
UV 0 out of 12
Pollen 3.90 out of 12
Air Quality Not available.
Flu Activity Not available.
SPECI KFIG 300945Z AUTO 21008KT 5SM BR FEW002 OVC010 01/00 A2976 RMK AO2 RAE05UPB05E09 P0000 T00110000

More Conditions Fewer Conditions

Pressure 29.76 in
Visibility 5.0 miles
Clouds Few 200 ft
Overcast 1000 ft
Windchill 37 °F
Dew Point 34 °F
Humidity 91%
Rainfall 0.00 in
Snow Depth Not available.
UV 0 out of 12
Pollen 3.90 out of 12
Air Quality Not available.
Flu Activity Not available.
SPECI KFIG 300945Z AUTO 21008KT 5SM BR FEW002 OVC010 01/00 A2976 RMK AO2 RAE05UPB05E09 P0000 T00110000

More Conditions Fewer Conditions

Nowcast | as of 4:15 am EDT on March 30, 2015

Patchy rain and snow will be across the region through 930 am. Little if any snow accumulation is expected. With temperatures mainly above freezing...widespread freezing rain is not expected. However...an isolated icy spot could occur.

×

10-Day Weather Forecast

Almanac

Astronomy

Mar. 30, 2015 Rise Set
Actual Time
Civil Twilight
Nautical Twilight
Astronomical Twilight
Moon
Length of Visible Light
Length of Day
Tomorrow will be .
, % of the Moon is Illuminated

Today's Extremes

State Highs State Lows

Community

WunderPhotos

Upload Photos

1,809,451 photos uploaded!

WunderBlogs® & News

Nearby

Air Quality

  Air Quality AQ Index Pollutant
Not available.

Snow Depth

Station Depth Elevation

Earthquake Activity

City Distance Mag. Time & Date
Minimum magnitude displayed is 2.5.

Coastal Water Temperatures

Place Temperature

Stations

Nearby Weather Stations

Station Location Temp. Windchill Dew Point Humidity Wind Precip. Elev Updated Type